createdAt,value
2018-08-14T00:00:54.289Z,10.15
2018-08-14T00:01:58.750Z,9.23
2018-08-14T00:03:04.499Z,9.35
2018-08-14T00:04:08.710Z,9.10
2018-08-14T00:05:12.959Z,9.68
2018-08-14T00:06:17.159Z,8.65
2018-08-14T00:07:21.368Z,8.35
2018-08-14T00:08:25.523Z,10.30
2018-08-14T00:09:29.699Z,10.43
2018-08-14T00:10:33.930Z,9.20
2018-08-14T00:11:38.189Z,8.15
2018-08-14T00:12:42.394Z,9.38
2018-08-14T00:13:46.566Z,9.80
2018-08-14T00:14:50.739Z,9.48
2018-08-14T00:15:55.067Z,9.45
2018-08-14T00:16:59.246Z,9.48
2018-08-14T00:18:03.474Z,8.90
2018-08-14T00:19:07.654Z,10.13
2018-08-14T00:20:12.895Z,9.10
2018-08-14T00:21:17.066Z,8.08
2018-08-14T00:22:21.551Z,8.53
2018-08-14T00:23:25.776Z,8.75
2018-08-14T00:24:29.918Z,8.73
2018-08-14T00:25:34.288Z,9.40
2018-08-14T00:26:38.758Z,8.80
2018-08-14T00:27:43.037Z,7.92
2018-08-14T00:28:47.351Z,7.75
2018-08-14T00:29:51.622Z,8.53
2018-08-14T00:30:55.834Z,8.03
2018-08-14T00:32:00.054Z,8.35
2018-08-14T00:33:04.324Z,8.60
2018-08-14T00:34:08.754Z,9.55
2018-08-14T00:35:13.063Z,9.08
2018-08-14T00:36:17.242Z,8.78
2018-08-14T00:37:22.554Z,9.70
2018-08-14T00:38:26.799Z,7.95
2018-08-14T00:39:31.086Z,8.80
2018-08-14T00:40:35.327Z,9.58
2018-08-14T00:41:39.530Z,10.15
2018-08-14T00:42:43.746Z,8.35
2018-08-14T00:43:47.965Z,9.93
2018-08-14T00:44:52.427Z,10.45
2018-08-14T00:45:56.649Z,7.90
2018-08-14T00:47:00.876Z,8.55
2018-08-14T00:48:05.945Z,8.90
2018-08-14T00:49:10.284Z,8.55
2018-08-14T00:50:15.104Z,8.20
2018-08-14T00:51:19.258Z,8.50
2018-08-14T00:52:23.440Z,8.68
2018-08-14T00:53:27.638Z,7.67
2018-08-14T00:54:31.884Z,9.05
2018-08-14T00:55:36.148Z,7.78
2018-08-14T00:56:40.614Z,10.68
2018-08-14T00:57:45.214Z,9.20
2018-08-14T00:58:49.401Z,9.00
2018-08-14T00:59:53.668Z,10.08
2018-08-14T01:00:58.180Z,8.48
2018-08-14T01:02:02.518Z,8.75
2018-08-14T01:03:08.710Z,8.60
2018-08-14T01:04:12.999Z,10.05
2018-08-14T01:05:17.826Z,8.30
2018-08-14T01:06:22.239Z,9.20
2018-08-14T01:07:26.525Z,9.15
2018-08-14T01:08:31.021Z,7.90
2018-08-14T01:09:35.667Z,7.92
2018-08-14T01:10:39.902Z,9.15
2018-08-14T01:11:44.163Z,8.25
2018-08-14T01:12:51.403Z,8.75
2018-08-14T01:13:55.604Z,8.48
2018-08-14T01:14:59.767Z,9.00
2018-08-14T01:16:04.006Z,8.88
2018-08-14T01:17:08.221Z,8.48
2018-08-14T01:18:12.390Z,10.40
2018-08-14T01:19:16.585Z,9.28
2018-08-14T01:20:21.974Z,8.73
2018-08-14T01:21:26.294Z,10.25
2018-08-14T01:22:30.714Z,8.95
2018-08-14T01:23:34.987Z,9.65
2018-08-14T01:24:39.148Z,9.88
2018-08-14T01:25:43.438Z,10.23
2018-08-14T01:26:49.244Z,8.45
2018-08-14T01:27:54.059Z,9.58
2018-08-14T01:28:58.218Z,8.65
2018-08-14T01:30:02.446Z,10.95
2018-08-14T01:31:07.946Z,9.55
2018-08-14T01:32:12.194Z,8.78
2018-08-14T01:33:16.394Z,10.28
2018-08-14T01:34:20.989Z,9.88
2018-08-14T01:35:25.214Z,9.75
2018-08-14T01:36:29.545Z,9.70
2018-08-14T01:37:33.707Z,10.28
2018-08-14T01:38:37.926Z,9.70
2018-08-14T01:39:42.154Z,10.23
2018-08-14T01:40:46.326Z,10.28
2018-08-14T01:41:50.506Z,10.32
2018-08-14T01:42:54.803Z,9.80
2018-08-14T01:43:58.954Z,10.75
2018-08-14T01:45:03.239Z,10.28
2018-08-14T01:46:07.417Z,10.45
2018-08-14T01:47:11.752Z,10.88
2018-08-14T01:48:15.918Z,10.85
2018-08-14T01:49:20.274Z,9.73
2018-08-14T01:50:26.115Z,11.30
2018-08-14T01:51:30.514Z,10.68
2018-08-14T01:52:34.840Z,11.40
2018-08-14T01:53:39.073Z,9.73
2018-08-14T01:54:43.250Z,11.48
2018-08-14T01:55:47.430Z,10.35
2018-08-14T01:56:51.569Z,12.37
2018-08-14T01:57:56.106Z,12.78
2018-08-14T01:59:00.293Z,10.55
2018-08-14T02:00:05.683Z,11.75
2018-08-14T02:01:10.027Z,11.18
2018-08-14T02:02:14.194Z,12.00
2018-08-14T02:03:18.462Z,11.05
2018-08-14T02:04:22.629Z,11.43
2018-08-14T02:05:26.797Z,11.45
2018-08-14T02:06:31.282Z,13.08
2018-08-14T02:07:35.447Z,12.15
2018-08-14T02:08:40.784Z,11.85
2018-08-14T02:09:46.287Z,12.03
2018-08-14T02:10:50.697Z,11.60
2018-08-14T02:11:55.383Z,12.10
2018-08-14T02:12:59.588Z,11.18
2018-08-14T02:14:03.775Z,12.15
2018-08-14T02:15:09.850Z,12.65
2018-08-14T02:16:14.079Z,11.18
2018-08-14T02:17:18.352Z,13.03
2018-08-14T02:18:22.506Z,12.23
2018-08-14T02:19:26.673Z,12.23
2018-08-14T02:20:30.891Z,12.63
2018-08-14T02:21:35.084Z,12.18
2018-08-14T02:22:39.507Z,12.37
2018-08-14T02:23:43.670Z,11.78
2018-08-14T02:24:47.891Z,13.90
2018-08-14T02:25:52.307Z,13.25
2018-08-14T02:26:56.459Z,12.28
2018-08-14T02:28:00.642Z,14.65
2018-08-14T02:29:04.916Z,12.30
2018-08-14T02:30:09.147Z,14.70
2018-08-14T02:31:13.330Z,13.15
2018-08-14T02:32:17.538Z,13.30
2018-08-14T02:33:21.655Z,12.35
2018-08-14T02:34:25.801Z,12.85
2018-08-14T02:35:29.946Z,13.62
2018-08-14T02:36:34.153Z,14.35
2018-08-14T02:37:38.618Z,12.05
2018-08-14T02:38:42.798Z,12.05
2018-08-14T02:39:46.942Z,13.70
2018-08-14T02:40:51.342Z,12.78
2018-08-14T02:41:55.582Z,13.53
2018-08-14T02:42:59.703Z,13.58
2018-08-14T02:44:03.993Z,13.48
2018-08-14T02:45:09.426Z,13.43
2018-08-14T02:46:14.069Z,14.53
2018-08-14T02:47:18.275Z,13.72
2018-08-14T02:48:22.606Z,12.65
2018-08-14T02:49:26.721Z,13.62
2018-08-14T02:50:30.875Z,13.72
2018-08-14T02:51:35.049Z,14.63
2018-08-14T02:52:39.477Z,13.08
2018-08-14T02:53:43.689Z,13.35
2018-08-14T02:54:47.970Z,14.33
2018-08-14T02:55:52.195Z,14.47
2018-08-14T02:56:56.326Z,12.73
2018-08-14T02:58:00.501Z,13.50
2018-08-14T02:59:04.678Z,14.18
2018-08-14T03:00:11.161Z,13.45
2018-08-14T03:01:15.322Z,14.45
2018-08-14T03:02:19.471Z,11.78
2018-08-14T03:03:23.642Z,13.80
2018-08-14T03:04:27.787Z,13.53
2018-08-14T03:05:31.926Z,13.85
2018-08-14T03:06:36.294Z,12.40
2018-08-14T03:07:40.703Z,13.65
2018-08-14T03:08:44.903Z,12.68
2018-08-14T03:09:49.093Z,13.08
2018-08-14T03:10:53.281Z,12.10
2018-08-14T03:11:57.523Z,13.10
2018-08-14T03:13:01.658Z,12.65
2018-08-14T03:14:06.878Z,13.35
2018-08-14T03:15:13.928Z,12.70
2018-08-14T03:16:18.103Z,12.95
2018-08-14T03:17:22.308Z,14.43
2018-08-14T03:18:26.545Z,13.55
2018-08-14T03:19:30.937Z,13.65
2018-08-14T03:20:38.922Z,12.90
2018-08-14T03:21:43.358Z,14.80
2018-08-14T03:22:47.753Z,12.85
2018-08-14T03:23:51.933Z,12.37
2018-08-14T03:24:56.134Z,14.68
2018-08-14T03:26:00.293Z,13.75
2018-08-14T03:27:04.486Z,12.40
2018-08-14T03:28:08.640Z,12.88
2018-08-14T03:29:12.793Z,13.45
2018-08-14T03:30:17.082Z,14.20
2018-08-14T03:31:21.447Z,13.55
2018-08-14T03:32:25.622Z,12.58
2018-08-14T03:33:30.243Z,12.93
2018-08-14T03:34:34.386Z,13.00
2018-08-14T03:35:38.558Z,13.55
2018-08-14T03:36:42.862Z,13.13
2018-08-14T03:37:47.369Z,14.68
2018-08-14T03:38:51.510Z,14.47
2018-08-14T03:39:55.642Z,14.18
2018-08-14T03:40:59.842Z,11.90
2018-08-14T03:42:04.016Z,13.85
2018-08-14T03:43:08.183Z,14.40
2018-08-14T03:44:12.353Z,13.30
2018-08-14T03:45:16.626Z,13.68
2018-08-14T03:46:20.843Z,14.18
2018-08-14T03:47:25.101Z,13.80
2018-08-14T03:48:29.234Z,13.83
2018-08-14T03:49:33.408Z,16.48
2018-08-14T03:50:37.822Z,14.13
2018-08-14T03:51:41.982Z,15.68
2018-08-14T03:52:46.153Z,15.90
2018-08-14T03:53:50.330Z,14.83
2018-08-14T03:54:54.571Z,14.90
2018-08-14T03:55:58.740Z,14.93
2018-08-14T03:57:02.946Z,15.65
2018-08-14T03:58:07.254Z,15.10
2018-08-14T03:59:11.404Z,15.60
2018-08-14T04:00:17.053Z,16.85
2018-08-14T04:01:21.230Z,14.38
2018-08-14T04:02:25.430Z,16.40
2018-08-14T04:03:29.593Z,16.37
2018-08-14T04:04:33.746Z,15.13
2018-08-14T04:05:37.919Z,17.00
2018-08-14T04:06:42.083Z,14.90
2018-08-14T04:07:46.329Z,16.15
2018-08-14T04:08:50.446Z,14.87
2018-08-14T04:09:54.778Z,17.00
2018-08-14T04:10:59.047Z,16.00
2018-08-14T04:12:03.259Z,17.95
2018-08-14T04:13:07.457Z,17.52
2018-08-14T04:14:11.598Z,16.42
2018-08-14T04:15:15.768Z,17.10
2018-08-14T04:16:19.905Z,24.45
2018-08-14T04:17:24.060Z,17.77
2018-08-14T04:18:28.277Z,16.37
2018-08-14T04:19:32.401Z,17.10
2018-08-14T04:20:36.790Z,18.48
2018-08-14T04:21:40.938Z,16.82
2018-08-14T04:22:45.099Z,18.35
2018-08-14T04:23:49.798Z,15.75
2018-08-14T04:24:53.984Z,16.93
2018-08-14T04:25:58.182Z,18.20
2018-08-14T04:27:02.375Z,17.90
2018-08-14T04:28:06.691Z,17.35
2018-08-14T04:29:10.877Z,17.40
2018-08-14T04:30:15.056Z,16.42
2018-08-14T04:31:19.332Z,16.23
2018-08-14T04:32:23.522Z,18.67
2018-08-14T04:33:27.723Z,17.12
2018-08-14T04:34:31.902Z,17.67
2018-08-14T04:35:36.072Z,18.92
2018-08-14T04:36:40.278Z,17.17
2018-08-14T04:37:45.422Z,16.05
2018-08-14T04:38:51.558Z,18.30
2018-08-14T04:39:55.737Z,17.17
2018-08-14T04:40:59.965Z,16.50
2018-08-14T04:42:04.376Z,16.23
2018-08-14T04:43:08.683Z,17.37
2018-08-14T04:44:12.862Z,18.17
2018-08-14T04:45:17.093Z,17.70
2018-08-14T04:46:21.307Z,17.35
2018-08-14T04:47:25.858Z,17.67
2018-08-14T04:48:30.224Z,15.90
2018-08-14T04:49:34.663Z,16.60
2018-08-14T04:50:39.137Z,18.57
2018-08-14T04:51:43.298Z,16.65
2018-08-14T04:52:47.533Z,14.80
2018-08-14T04:53:51.755Z,17.20
2018-08-14T04:54:55.967Z,17.23
2018-08-14T04:56:00.199Z,17.25
2018-08-14T04:57:04.484Z,16.95
2018-08-14T04:58:08.885Z,16.52
2018-08-14T04:59:13.055Z,18.90
2018-08-14T05:00:17.401Z,16.25
2018-08-14T05:01:21.621Z,17.57
2018-08-14T05:02:26.090Z,17.40
2018-08-14T05:03:30.882Z,15.95
2018-08-14T05:04:35.080Z,17.85
2018-08-14T05:05:39.283Z,16.40
2018-08-14T05:06:43.485Z,15.63
2018-08-14T05:07:47.683Z,16.30
2018-08-14T05:08:51.884Z,15.15
2018-08-14T05:09:56.043Z,16.12
2018-08-14T05:11:00.205Z,15.90
2018-08-14T05:12:04.431Z,17.73
2018-08-14T05:13:08.601Z,16.67
2018-08-14T05:14:12.987Z,15.23
2018-08-14T05:15:17.192Z,14.65
2018-08-14T05:16:21.398Z,14.20
2018-08-14T05:17:25.589Z,14.45
2018-08-14T05:18:30.021Z,14.40
2018-08-14T05:19:34.185Z,15.25
2018-08-14T05:20:38.351Z,15.53
2018-08-14T05:21:42.525Z,17.17
2018-08-14T05:22:46.738Z,16.82
2018-08-14T05:23:51.345Z,16.27
2018-08-14T05:24:55.666Z,14.80
2018-08-14T05:25:59.870Z,15.70
2018-08-14T05:27:04.102Z,17.20
2018-08-14T05:28:08.378Z,16.42
2018-08-14T05:29:12.727Z,16.07
2018-08-14T05:30:17.969Z,16.73
2018-08-14T05:31:22.192Z,15.93
2018-08-14T05:32:26.350Z,16.42
2018-08-14T05:33:30.796Z,17.00
2018-08-14T05:34:40.230Z,16.93
2018-08-14T05:35:44.534Z,16.30
2018-08-14T05:36:48.748Z,17.92
2018-08-14T05:37:52.890Z,18.27
2018-08-14T05:38:57.134Z,16.27
2018-08-14T05:40:01.326Z,18.25
2018-08-14T05:41:05.526Z,17.37
2018-08-14T05:42:10.104Z,19.37
2018-08-14T05:43:14.308Z,16.87
2018-08-14T05:44:24.533Z,20.20
2018-08-14T05:45:28.741Z,17.85
2018-08-14T05:46:32.968Z,20.43
2018-08-14T05:47:37.150Z,19.48
2018-08-14T05:48:41.352Z,19.32
2018-08-14T05:49:45.615Z,18.15
2018-08-14T05:50:49.786Z,19.20
2018-08-14T05:51:53.942Z,19.65
2018-08-14T05:52:58.311Z,18.90
2018-08-14T05:54:02.567Z,19.75
2018-08-14T05:55:06.827Z,18.23
2018-08-14T05:56:11.035Z,19.50
2018-08-14T05:57:15.216Z,19.57
2018-08-14T05:58:19.529Z,19.48
2018-08-14T05:59:23.709Z,19.10
2018-08-14T06:00:27.952Z,18.55
2018-08-14T06:01:32.163Z,18.73
2018-08-14T06:02:36.443Z,18.55
2018-08-14T06:03:40.608Z,18.20
2018-08-14T06:04:44.787Z,18.02
2018-08-14T06:05:49.018Z,18.23
2018-08-14T06:06:53.258Z,18.65
2018-08-14T06:07:57.468Z,18.40
2018-08-14T06:09:01.824Z,18.75
2018-08-14T06:10:07.065Z,19.20
2018-08-14T06:11:11.238Z,17.60
2018-08-14T06:12:15.467Z,17.67
2018-08-14T06:13:19.670Z,17.25
2018-08-14T06:14:23.849Z,18.02
2018-08-14T06:15:28.179Z,18.80
2018-08-14T06:16:32.449Z,19.02
2018-08-14T06:17:37.168Z,16.62
2018-08-14T06:18:41.742Z,19.12
2018-08-14T06:19:45.918Z,16.75
2018-08-14T06:20:50.142Z,18.45
2018-08-14T06:21:54.345Z,17.60
2018-08-14T06:22:58.541Z,16.55
2018-08-14T06:24:03.055Z,18.25
2018-08-14T06:25:07.749Z,17.82
2018-08-14T06:26:11.981Z,17.12
2018-08-14T06:27:16.085Z,16.77
2018-08-14T06:28:20.394Z,17.65
2018-08-14T06:29:24.555Z,17.32
2018-08-14T06:30:28.694Z,17.23
2018-08-14T06:31:32.870Z,18.27
2018-08-14T06:32:37.054Z,18.55
2018-08-14T06:33:41.268Z,19.52
2018-08-14T06:34:45.427Z,18.20
2018-08-14T06:35:49.574Z,17.60
2018-08-14T06:36:53.752Z,19.60
2018-08-14T06:37:57.987Z,19.00
2018-08-14T06:39:02.399Z,18.60
2018-08-14T06:40:09.914Z,19.73
2018-08-14T06:41:14.147Z,18.32
2018-08-14T06:42:18.312Z,19.25
2018-08-14T06:43:22.477Z,19.20
2018-08-14T06:44:26.611Z,19.10
2018-08-14T06:45:30.777Z,19.17
2018-08-14T06:46:34.970Z,21.17
2018-08-14T06:47:39.396Z,18.87
2018-08-14T06:48:43.646Z,20.95
2018-08-14T06:49:47.771Z,18.82
2018-08-14T06:50:51.934Z,22.10
2018-08-14T06:51:56.089Z,21.20
2018-08-14T06:53:00.630Z,19.37
2018-08-14T06:54:05.267Z,20.70
2018-08-14T06:55:10.263Z,22.02
2018-08-14T06:56:15.108Z,19.27
2018-08-14T06:57:19.516Z,21.17
2018-08-14T06:58:23.722Z,21.97
2018-08-14T06:59:28.138Z,21.40
2018-08-14T07:00:32.286Z,22.02
2018-08-14T07:01:36.470Z,22.73
2018-08-14T07:02:40.667Z,23.35
2018-08-14T07:03:44.853Z,21.80
2018-08-14T07:04:49.158Z,21.87
2018-08-14T07:05:53.292Z,23.47
2018-08-14T07:06:57.618Z,22.37
2018-08-14T07:08:01.783Z,22.98
2018-08-14T07:09:07.763Z,23.18
2018-08-14T07:10:12.223Z,23.62
2018-08-14T07:11:16.407Z,23.70
2018-08-14T07:12:20.611Z,25.52
2018-08-14T07:13:24.816Z,24.05
2018-08-14T07:14:28.991Z,24.20
2018-08-14T07:15:33.257Z,23.22
2018-08-14T07:16:38.702Z,26.17
2018-08-14T07:17:43.180Z,25.82
2018-08-14T07:18:47.358Z,23.92
2018-08-14T07:19:51.522Z,28.10
2018-08-14T07:20:55.768Z,25.40
2018-08-14T07:21:59.956Z,25.70
2018-08-14T07:23:04.203Z,26.10
2018-08-14T07:24:08.947Z,27.15
2018-08-14T07:25:14.420Z,26.60
2018-08-14T07:26:18.792Z,27.87
2018-08-14T07:27:22.971Z,26.75
2018-08-14T07:28:27.220Z,25.80
2018-08-14T07:29:31.409Z,26.35
2018-08-14T07:30:35.611Z,27.75
2018-08-14T07:31:39.923Z,27.30
2018-08-14T07:32:44.313Z,28.67
2018-08-14T07:33:48.596Z,29.02
2018-08-14T07:34:53.463Z,28.25
2018-08-14T07:35:57.745Z,26.25
2018-08-14T07:37:01.949Z,26.73
2018-08-14T07:38:06.690Z,29.57
2018-08-14T07:39:10.880Z,28.38
2018-08-14T07:40:15.276Z,29.12
2018-08-14T07:41:23.313Z,24.60
2018-08-14T07:42:27.513Z,26.42
2018-08-14T07:43:31.693Z,25.95
2018-08-14T07:44:35.871Z,26.80
2018-08-14T07:45:40.095Z,24.23
2018-08-14T07:46:44.350Z,25.48
2018-08-14T07:47:48.636Z,25.90
2018-08-14T07:48:53.407Z,24.75
2018-08-14T07:49:57.661Z,23.87
2018-08-14T07:51:01.778Z,24.67
2018-08-14T07:52:05.990Z,26.17
2018-08-14T07:53:10.214Z,25.45
2018-08-14T07:54:14.514Z,26.33
2018-08-14T07:55:18.694Z,26.80
2018-08-14T07:56:22.867Z,27.32
2018-08-14T07:57:27.058Z,25.70
2018-08-14T07:58:31.271Z,23.50
2018-08-14T07:59:35.917Z,23.52
2018-08-14T08:00:40.148Z,26.00
2018-08-14T08:01:44.474Z,27.55
2018-08-14T08:02:49.722Z,25.82
2018-08-14T08:03:53.965Z,25.65
2018-08-14T08:04:58.367Z,25.37
2018-08-14T08:06:02.535Z,25.85
2018-08-14T08:07:07.189Z,25.55
2018-08-14T08:08:11.364Z,24.27
2018-08-14T08:09:15.598Z,23.22
2018-08-14T08:10:20.019Z,24.43
2018-08-14T08:11:24.207Z,21.75
2018-08-14T08:12:28.421Z,20.12
2018-08-14T08:13:32.672Z,23.62
2018-08-14T08:14:36.887Z,22.35
2018-08-14T08:15:41.239Z,20.72
2018-08-14T08:16:45.436Z,20.77
2018-08-14T08:17:49.916Z,20.20
2018-08-14T08:18:54.130Z,21.55
2018-08-14T08:19:58.390Z,21.52
2018-08-14T08:21:02.600Z,20.00
2018-08-14T08:22:06.879Z,21.45
2018-08-14T08:23:11.063Z,19.60
2018-08-14T08:24:15.615Z,20.60
2018-08-14T08:25:19.903Z,20.72
2018-08-14T08:26:24.069Z,19.35
2018-08-14T08:27:28.625Z,19.82
2018-08-14T08:28:32.778Z,21.10
2018-08-14T08:29:36.998Z,20.88
2018-08-14T08:30:41.206Z,18.62
2018-08-14T08:31:45.443Z,19.07
2018-08-14T08:32:49.655Z,19.48
2018-08-14T08:33:54.025Z,20.17
2018-08-14T08:34:58.229Z,19.17
2018-08-14T08:36:02.547Z,19.85
2018-08-14T08:37:06.787Z,18.77
2018-08-14T08:38:11.142Z,17.82
2018-08-14T08:39:15.445Z,17.57
2018-08-14T08:40:19.735Z,18.65
2018-08-14T08:41:23.937Z,20.43
2018-08-14T08:42:28.131Z,18.07
2018-08-14T08:43:32.470Z,16.77
2018-08-14T08:44:36.672Z,15.75
2018-08-14T08:45:40.874Z,16.82
2018-08-14T08:46:45.403Z,17.90
2018-08-14T08:47:49.638Z,17.73
2018-08-14T08:48:54.239Z,17.00
2018-08-14T08:49:58.407Z,15.30
2018-08-14T08:51:02.640Z,15.43
2018-08-14T08:52:06.988Z,15.13
2018-08-14T08:53:11.294Z,14.23
2018-08-14T08:54:15.527Z,16.50
2018-08-14T08:55:19.739Z,15.40
2018-08-14T08:56:23.928Z,14.68
2018-08-14T08:57:28.209Z,14.47
2018-08-14T08:58:32.382Z,12.25
2018-08-14T08:59:36.598Z,13.18
2018-08-14T09:00:40.803Z,13.32
2018-08-14T09:01:45.011Z,13.93
2018-08-14T09:02:49.384Z,12.85
2018-08-14T09:03:53.613Z,13.00
2018-08-14T09:04:57.746Z,13.15
2018-08-14T09:06:01.903Z,12.88
2018-08-14T09:07:06.273Z,13.38
2018-08-14T09:08:12.599Z,12.90
2018-08-14T09:09:16.825Z,11.83
2018-08-14T09:10:20.965Z,11.95
2018-08-14T09:11:25.754Z,11.20
2018-08-14T09:12:29.960Z,9.48
2018-08-14T09:13:34.187Z,10.38
2018-08-14T09:14:38.401Z,9.45
2018-08-14T09:15:42.667Z,8.55
2018-08-14T09:16:46.813Z,9.95
2018-08-14T09:17:51.145Z,8.25
2018-08-14T09:18:55.326Z,8.85
2018-08-14T09:19:59.506Z,9.00
2018-08-14T09:21:03.854Z,9.40
2018-08-14T09:22:08.205Z,8.35
2018-08-14T09:23:12.466Z,8.90
2018-08-14T09:24:17.023Z,8.55
2018-08-14T09:25:21.244Z,9.05
2018-08-14T09:26:25.458Z,8.70
2018-08-14T09:27:29.750Z,8.65
2018-08-14T09:28:34.154Z,9.33
2018-08-14T09:29:38.462Z,9.03
2018-08-14T09:30:42.624Z,8.50
2018-08-14T09:31:46.819Z,9.80
2018-08-14T09:32:50.977Z,8.95
2018-08-14T09:33:55.342Z,10.00
2018-08-14T09:34:59.497Z,9.40
2018-08-14T09:36:03.694Z,9.83
2018-08-14T09:37:07.873Z,10.78
2018-08-14T09:38:12.047Z,10.20
2018-08-14T09:39:16.266Z,9.55
2018-08-14T09:40:21.227Z,10.48
2018-08-14T09:41:25.471Z,10.05
2018-08-14T09:42:29.638Z,9.43
2018-08-14T09:43:33.849Z,10.32
2018-08-14T09:44:38.152Z,10.10
2018-08-14T09:45:42.519Z,10.82
2018-08-14T09:46:46.671Z,10.32
2018-08-14T09:47:51.075Z,9.55
2018-08-14T09:48:55.214Z,8.35
2018-08-14T09:49:59.384Z,7.78
2018-08-14T09:51:03.586Z,7.22
2018-08-14T09:52:07.758Z,7.47
2018-08-14T09:53:11.957Z,6.40
2018-08-14T09:54:16.134Z,6.90
2018-08-14T09:55:20.966Z,6.60
2018-08-14T09:56:25.227Z,6.17
2018-08-14T09:57:29.392Z,6.05
2018-08-14T09:58:33.566Z,6.70
2018-08-14T09:59:37.815Z,5.92
2018-08-14T10:00:47.302Z,6.03
2018-08-14T10:01:56.923Z,5.67
2018-08-14T10:03:08.062Z,5.40
2018-08-14T10:04:17.542Z,5.30
2018-08-14T10:05:26.841Z,5.40
2018-08-14T10:06:36.211Z,6.20
2018-08-14T10:07:48.049Z,5.50
2018-08-14T10:08:52.482Z,6.10
2018-08-14T10:09:56.618Z,5.95
2018-08-14T10:11:00.855Z,5.12
2018-08-14T10:12:05.368Z,5.12
2018-08-14T10:13:10.901Z,6.37
2018-08-14T10:14:15.083Z,5.40
2018-08-14T10:15:19.254Z,5.65
2018-08-14T10:16:23.598Z,5.30
2018-08-14T10:17:27.751Z,5.12
2018-08-14T10:18:32.283Z,5.40
2018-08-14T10:19:36.735Z,5.58
2018-08-14T10:20:41.473Z,6.30
2018-08-14T10:21:45.692Z,6.50
2018-08-14T10:22:49.895Z,6.00
2018-08-14T10:23:54.184Z,5.33
2018-08-14T10:24:58.538Z,5.95
2018-08-14T10:26:02.748Z,5.10
2018-08-14T10:27:06.959Z,4.75
2018-08-14T10:28:12.920Z,5.70
2018-08-14T10:29:17.122Z,6.35
2018-08-14T10:30:21.315Z,5.65
2018-08-14T10:31:25.502Z,6.87
2018-08-14T10:32:29.711Z,5.37
2018-08-14T10:33:34.191Z,4.70
2018-08-14T10:34:38.452Z,5.10
2018-08-14T10:35:42.796Z,5.33
2018-08-14T10:36:46.941Z,4.67
2018-08-14T10:37:51.206Z,4.87
2018-08-14T10:38:55.367Z,5.30
2018-08-14T10:39:59.664Z,4.25
2018-08-14T10:41:03.796Z,4.42
2018-08-14T10:42:07.952Z,4.92
2018-08-14T10:43:12.300Z,4.45
2018-08-14T10:44:16.497Z,3.80
2018-08-14T10:45:20.702Z,3.98
2018-08-14T10:46:24.970Z,4.03
2018-08-14T10:47:29.114Z,4.15
2018-08-14T10:48:33.262Z,3.80
2018-08-14T10:49:37.410Z,4.62
2018-08-14T10:50:41.610Z,4.60
2018-08-14T10:51:45.786Z,4.83
2018-08-14T10:52:50.261Z,5.30
2018-08-14T10:53:54.437Z,4.97
2018-08-14T10:54:58.598Z,5.50
2018-08-14T10:56:02.808Z,5.40
2018-08-14T10:57:07.025Z,5.67
2018-08-14T10:58:11.508Z,6.10
2018-08-14T10:59:15.628Z,5.70
2018-08-14T11:00:31.514Z,5.73
2018-08-14T11:01:35.861Z,4.70
2018-08-14T11:02:40.112Z,4.67
2018-08-14T11:03:44.262Z,5.07
2018-08-14T11:04:48.572Z,4.43
2018-08-14T11:05:52.702Z,4.78
2018-08-14T11:06:56.891Z,4.03
2018-08-14T11:08:01.072Z,4.07
2018-08-14T11:09:07.011Z,3.80
2018-08-14T11:10:15.149Z,4.30
2018-08-14T11:11:20.403Z,3.60
2018-08-14T11:12:24.554Z,3.33
2018-08-14T11:13:28.686Z,3.90
2018-08-14T11:14:32.827Z,4.57
2018-08-14T11:15:36.963Z,4.00
2018-08-14T11:16:41.287Z,3.73
2018-08-14T11:17:45.537Z,3.10
2018-08-14T11:18:49.701Z,3.70
2018-08-14T11:19:53.851Z,3.20
2018-08-14T11:20:58.023Z,3.60
2018-08-14T11:22:02.735Z,3.37
2018-08-14T11:23:06.943Z,3.20
2018-08-14T11:24:11.642Z,3.25
2018-08-14T11:25:16.466Z,3.20
2018-08-14T11:26:20.717Z,3.20
2018-08-14T11:27:24.853Z,3.50
2018-08-14T11:28:29.046Z,3.10
2018-08-14T11:29:33.245Z,3.07
2018-08-14T11:30:37.432Z,3.00
2018-08-14T11:31:41.622Z,3.90
2018-08-14T11:32:46.252Z,3.00
2018-08-14T11:33:50.421Z,3.10
2018-08-14T11:34:54.663Z,3.47
2018-08-14T11:36:03.858Z,3.40
2018-08-14T11:37:08.025Z,3.00
2018-08-14T11:38:12.173Z,2.40
2018-08-14T11:39:16.372Z,3.03
2018-08-14T11:40:20.544Z,2.90
2018-08-14T11:41:24.672Z,2.80
2018-08-14T11:42:28.842Z,2.53
2018-08-14T11:43:33.018Z,3.10
2018-08-14T11:44:37.227Z,3.60
2018-08-14T11:45:42.147Z,3.00
2018-08-14T11:46:46.409Z,2.70
2018-08-14T11:47:50.665Z,3.50
2018-08-14T11:48:54.794Z,3.10
2018-08-14T11:49:58.979Z,3.20
2018-08-14T11:51:03.223Z,2.73
2018-08-14T11:52:07.380Z,2.73
2018-08-14T11:53:11.535Z,2.83
2018-08-14T11:54:15.692Z,3.37
2018-08-14T11:55:20.704Z,3.70
2018-08-14T11:56:24.875Z,3.50
2018-08-14T11:57:29.041Z,2.50
2018-08-14T11:58:33.193Z,2.70
2018-08-14T11:59:37.381Z,2.53
2018-08-14T12:00:41.530Z,3.20
2018-08-14T12:01:45.710Z,2.50
2018-08-14T12:02:50.438Z,2.30
2018-08-14T12:03:54.530Z,2.60
2018-08-14T12:04:58.683Z,3.73
2018-08-14T12:06:02.870Z,2.47
2018-08-14T12:07:07.247Z,2.47
2018-08-14T12:08:11.386Z,2.27
2018-08-14T12:09:15.576Z,2.10
2018-08-14T12:10:19.907Z,2.60
2018-08-14T12:11:24.135Z,2.40
2018-08-14T12:12:28.230Z,2.13
2018-08-14T12:13:32.382Z,2.60
2018-08-14T12:14:36.867Z,2.17
2018-08-14T12:15:41.011Z,2.53
2018-08-14T12:16:45.320Z,2.53
2018-08-14T12:17:49.499Z,2.30
2018-08-14T12:18:53.875Z,2.93
2018-08-14T12:19:58.040Z,2.60
2018-08-14T12:21:02.207Z,2.30
2018-08-14T12:22:06.524Z,2.33
2018-08-14T12:23:10.682Z,2.20
2018-08-14T12:24:14.868Z,2.50
2018-08-14T12:25:19.985Z,2.20
2018-08-14T12:26:24.115Z,2.23
2018-08-14T12:27:28.318Z,2.37
2018-08-14T12:28:32.502Z,2.27
2018-08-14T12:29:36.628Z,2.43
2018-08-14T12:30:40.805Z,2.30
2018-08-14T12:31:44.939Z,2.17
2018-08-14T12:32:49.614Z,2.10
2018-08-14T12:33:54.342Z,1.90
2018-08-14T12:34:58.533Z,2.37
2018-08-14T12:36:02.705Z,2.53
2018-08-14T12:37:07.086Z,2.47
2018-08-14T12:38:11.247Z,2.50
2018-08-14T12:39:15.480Z,1.80
2018-08-14T12:40:19.659Z,1.70
2018-08-14T12:41:23.794Z,1.50
2018-08-14T12:42:27.927Z,1.80
2018-08-14T12:43:32.191Z,1.83
2018-08-14T12:44:36.322Z,2.23
2018-08-14T12:45:40.505Z,1.70
2018-08-14T12:46:44.805Z,1.43
2018-08-14T12:47:49.359Z,1.53
2018-08-14T12:48:53.525Z,1.53
2018-08-14T12:49:57.729Z,1.23
2018-08-14T12:51:01.851Z,1.70
2018-08-14T12:52:06.126Z,2.00
2018-08-14T12:53:10.431Z,1.63
2018-08-14T12:54:14.600Z,1.57
2018-08-14T12:55:19.130Z,2.47
2018-08-14T12:56:23.471Z,1.70
2018-08-14T12:57:27.987Z,1.33
2018-08-14T12:58:32.226Z,1.87
2018-08-14T12:59:36.600Z,1.53
2018-08-14T13:00:40.714Z,1.40
2018-08-14T13:01:44.878Z,1.50
2018-08-14T13:02:49.129Z,2.10
2018-08-14T13:03:53.282Z,1.43
2018-08-14T13:04:57.465Z,1.47
2018-08-14T13:06:01.831Z,1.40
2018-08-14T13:07:06.206Z,1.20
2018-08-14T13:08:10.346Z,1.60
2018-08-14T13:09:14.548Z,1.43
2018-08-14T13:10:18.766Z,1.57
2018-08-14T13:11:22.958Z,1.33
2018-08-14T13:12:27.106Z,1.50
2018-08-14T13:13:31.294Z,1.50
2018-08-14T13:14:35.434Z,1.37
2018-08-14T13:15:39.598Z,1.50
2018-08-14T13:16:43.731Z,1.70
2018-08-14T13:18:07.552Z,1.43
2018-08-14T13:19:11.673Z,1.60
2018-08-14T13:20:15.853Z,1.63
2018-08-14T13:21:20.007Z,1.50
2018-08-14T13:22:24.196Z,1.50
2018-08-14T13:23:28.567Z,1.43
2018-08-14T13:24:32.721Z,1.30
2018-08-14T13:25:37.092Z,1.60
2018-08-14T13:26:41.299Z,1.50
2018-08-14T13:27:45.494Z,1.07
2018-08-14T13:28:49.723Z,1.43
2018-08-14T13:29:53.890Z,1.60
2018-08-14T13:30:58.074Z,1.73
2018-08-14T13:32:02.296Z,1.60
2018-08-14T13:33:06.546Z,1.30
2018-08-14T13:34:10.826Z,2.00
2018-08-14T13:35:15.133Z,1.73
2018-08-14T13:36:19.298Z,2.20
2018-08-14T13:37:23.550Z,1.80
2018-08-14T13:38:27.706Z,1.90
2018-08-14T13:39:31.952Z,2.20
2018-08-14T13:40:36.161Z,1.40
2018-08-14T13:41:40.367Z,2.10
2018-08-14T13:42:44.618Z,1.77
2018-08-14T13:43:48.825Z,1.90
2018-08-14T13:44:53.286Z,1.80
2018-08-14T13:45:57.457Z,1.43
2018-08-14T13:47:01.635Z,1.80
2018-08-14T13:48:05.974Z,2.37
2018-08-14T13:49:10.390Z,1.60
2018-08-14T13:50:14.626Z,1.67
2018-08-14T13:51:18.845Z,1.50
2018-08-14T13:52:23.054Z,1.57
2018-08-14T13:53:27.339Z,1.40
2018-08-14T13:54:31.556Z,1.60
2018-08-14T13:55:35.778Z,1.33
2018-08-14T13:56:39.963Z,1.27
2018-08-14T13:57:44.661Z,2.13
2018-08-14T13:58:49.055Z,1.23
2018-08-14T13:59:53.234Z,1.50
2018-08-14T14:00:57.422Z,1.23
2018-08-14T14:02:01.648Z,1.60